Taloyoak, Canada
Current Conditions -  °F | °C
As of 6:00 AM on Monday 22 Dec 2014 (Local Time) from CYYH Reporting Station
Light Snow Light Snow  
Wind Chill: -42°   Ceiling: 2000
Heat Index: -26°   Visibility: 15mi
Dew Point: -31°   Wind: 6mph
Humidity: 76%   Direction: 10°N
Pressure: 30.14"   Gusts: NA
Location:  69.53°N, 93.53°W
Report Text: CYYH 221200Z 01005KT 15SM -SN BKN020 M32/M35 A3014 RMK SC6 SNCOV/TRACE LOOSE SLP212
Loading
Personal Weather Stations






























Interactive Weather Map New forecast layout! Learn more

10-Day Weather Forecast

Advertisements
Track Severe Weather on mobile